sensor_id;sensor_type;location;lat;lon;timestamp;P1;durP1;ratioP1;P2;durP2;ratioP2
40541;SDS011;49288;52.194;5.676;2023-08-30T00:04:20;12.48;;;7.97;;
40541;SDS011;49288;52.194;5.676;2023-08-30T00:09:24;18.55;;;8.70;;
40541;SDS011;49288;52.194;5.676;2023-08-30T00:14:27;12.95;;;7.93;;
40541;SDS011;49288;52.194;5.676;2023-08-30T00:19:30;11.98;;;6.75;;
40541;SDS011;49288;52.194;5.676;2023-08-30T00:24:34;16.85;;;7.47;;
40541;SDS011;49288;52.194;5.676;2023-08-30T00:29:37;17.27;;;8.52;;
40541;SDS011;49288;52.194;5.676;2023-08-30T00:34:41;13.05;;;8.27;;
40541;SDS011;49288;52.194;5.676;2023-08-30T00:39:44;16.92;;;9.07;;
40541;SDS011;49288;52.194;5.676;2023-08-30T00:44:48;14.65;;;8.68;;
40541;SDS011;49288;52.194;5.676;2023-08-30T00:49:51;14.50;;;9.20;;
40541;SDS011;49288;52.194;5.676;2023-08-30T00:54:54;16.60;;;9.00;;
40541;SDS011;49288;52.194;5.676;2023-08-30T00:59:56;15.25;;;8.98;;
40541;SDS011;49288;52.194;5.676;2023-08-30T01:05:01;13.47;;;7.90;;
40541;SDS011;49288;52.194;5.676;2023-08-30T01:10:07;14.13;;;7.57;;
40541;SDS011;49288;52.194;5.676;2023-08-30T01:15:18;14.35;;;8.48;;
40541;SDS011;49288;52.194;5.676;2023-08-30T01:20:21;15.85;;;8.40;;
40541;SDS011;49288;52.194;5.676;2023-08-30T01:25:33;14.70;;;8.52;;
40541;SDS011;49288;52.194;5.676;2023-08-30T01:30:47;14.95;;;8.70;;
40541;SDS011;49288;52.194;5.676;2023-08-30T01:35:50;15.88;;;8.25;;
40541;SDS011;49288;52.194;5.676;2023-08-30T01:40:54;16.95;;;7.85;;
40541;SDS011;49288;52.194;5.676;2023-08-30T01:45:58;11.95;;;7.63;;
40541;SDS011;49288;52.194;5.676;2023-08-30T01:51:04;15.02;;;8.50;;
40541;SDS011;49288;52.194;5.676;2023-08-30T01:56:14;13.00;;;8.00;;
40541;SDS011;49288;52.194;5.676;2023-08-30T02:01:17;15.57;;;9.18;;
40541;SDS011;49288;52.194;5.676;2023-08-30T02:06:26;13.27;;;7.68;;
40541;SDS011;49288;52.194;5.676;2023-08-30T02:11:40;16.73;;;9.20;;
40541;SDS011;49288;52.194;5.676;2023-08-30T02:16:47;14.98;;;8.82;;
40541;SDS011;49288;52.194;5.676;2023-08-30T02:21:51;18.73;;;9.63;;
40541;SDS011;49288;52.194;5.676;2023-08-30T02:26:54;12.07;;;7.90;;
40541;SDS011;49288;52.194;5.676;2023-08-30T02:31:56;18.67;;;10.23;;
40541;SDS011;49288;52.194;5.676;2023-08-30T02:36:59;19.05;;;8.70;;
40541;SDS011;49288;52.194;5.676;2023-08-30T02:42:02;14.15;;;8.77;;
40541;SDS011;49288;52.194;5.676;2023-08-30T02:47:05;17.45;;;8.90;;
40541;SDS011;49288;52.194;5.676;2023-08-30T02:52:08;18.35;;;7.95;;
40541;SDS011;49288;52.194;5.676;2023-08-30T02:57:11;12.98;;;7.68;;
40541;SDS011;49288;52.194;5.676;2023-08-30T03:02:14;21.65;;;11.90;;
40541;SDS011;49288;52.194;5.676;2023-08-30T03:07:17;27.42;;;15.45;;
40541;SDS011;49288;52.194;5.676;2023-08-30T03:12:20;36.45;;;19.02;;
40541;SDS011;49288;52.194;5.676;2023-08-30T03:17:23;40.60;;;19.13;;
40541;SDS011;49288;52.194;5.676;2023-08-30T03:22:27;37.53;;;18.88;;
40541;SDS011;49288;52.194;5.676;2023-08-30T03:27:30;36.97;;;18.58;;
40541;SDS011;49288;52.194;5.676;2023-08-30T03:32:36;32.50;;;16.33;;
40541;SDS011;49288;52.194;5.676;2023-08-30T03:37:39;35.88;;;18.05;;
40541;SDS011;49288;52.194;5.676;2023-08-30T03:42:42;33.92;;;18.02;;
40541;SDS011;49288;52.194;5.676;2023-08-30T03:47:45;29.60;;;17.40;;
40541;SDS011;49288;52.194;5.676;2023-08-30T03:52:48;40.72;;;18.60;;
40541;SDS011;49288;52.194;5.676;2023-08-30T03:57:51;35.42;;;18.17;;
40541;SDS011;49288;52.194;5.676;2023-08-30T04:02:54;21.73;;;11.70;;
40541;SDS011;49288;52.194;5.676;2023-08-30T04:07:57;33.97;;;16.65;;
40541;SDS011;49288;52.194;5.676;2023-08-30T04:13:00;29.92;;;16.15;;
40541;SDS011;49288;52.194;5.676;2023-08-30T04:18:03;27.77;;;15.20;;
40541;SDS011;49288;52.194;5.676;2023-08-30T04:23:07;29.43;;;15.63;;
40541;SDS011;49288;52.194;5.676;2023-08-30T04:28:10;22.98;;;11.45;;
40541;SDS011;49288;52.194;5.676;2023-08-30T04:33:13;30.15;;;14.60;;
40541;SDS011;49288;52.194;5.676;2023-08-30T04:38:16;24.67;;;11.57;;
40541;SDS011;49288;52.194;5.676;2023-08-30T04:43:19;23.48;;;12.18;;
40541;SDS011;49288;52.194;5.676;2023-08-30T04:48:22;16.13;;;9.20;;
40541;SDS011;49288;52.194;5.676;2023-08-30T04:53:27;20.52;;;11.00;;
40541;SDS011;49288;52.194;5.676;2023-08-30T04:58:39;25.70;;;11.88;;
40541;SDS011;49288;52.194;5.676;2023-08-30T05:03:44;22.17;;;12.18;;
40541;SDS011;49288;52.194;5.676;2023-08-30T05:08:52;24.85;;;10.95;;
40541;SDS011;49288;52.194;5.676;2023-08-30T05:13:55;20.70;;;10.48;;
40541;SDS011;49288;52.194;5.676;2023-08-30T05:18:58;21.45;;;10.50;;
40541;SDS011;49288;52.194;5.676;2023-08-30T05:24:01;26.48;;;12.85;;
40541;SDS011;49288;52.194;5.676;2023-08-30T05:29:06;26.63;;;13.20;;
40541;SDS011;49288;52.194;5.676;2023-08-30T05:34:10;23.15;;;12.68;;
40541;SDS011;49288;52.194;5.676;2023-08-30T05:39:31;31.65;;;14.23;;
40541;SDS011;49288;52.194;5.676;2023-08-30T05:44:34;25.45;;;13.48;;
40541;SDS011;49288;52.194;5.676;2023-08-30T05:49:37;26.98;;;14.05;;
40541;SDS011;49288;52.194;5.676;2023-08-30T05:54:40;38.33;;;16.77;;
40541;SDS011;49288;52.194;5.676;2023-08-30T05:59:45;36.78;;;18.50;;
40541;SDS011;49288;52.194;5.676;2023-08-30T06:04:48;36.85;;;17.02;;
40541;SDS011;49288;52.194;5.676;2023-08-30T06:09:51;29.63;;;14.20;;
40541;SDS011;49288;52.194;5.676;2023-08-30T06:14:54;36.65;;;17.88;;
40541;SDS011;49288;52.194;5.676;2023-08-30T06:19:57;35.90;;;18.63;;
40541;SDS011;49288;52.194;5.676;2023-08-30T06:24:59;36.95;;;18.55;;
40541;SDS011;49288;52.194;5.676;2023-08-30T06:30:02;36.45;;;19.08;;
40541;SDS011;49288;52.194;5.676;2023-08-30T06:35:06;44.95;;;19.00;;
40541;SDS011;49288;52.194;5.676;2023-08-30T06:40:09;39.50;;;20.30;;
40541;SDS011;49288;52.194;5.676;2023-08-30T06:45:12;29.30;;;14.63;;
40541;SDS011;49288;52.194;5.676;2023-08-30T06:50:15;33.88;;;17.73;;
40541;SDS011;49288;52.194;5.676;2023-08-30T06:55:18;33.47;;;13.98;;
40541;SDS011;49288;52.194;5.676;2023-08-30T07:00:21;28.90;;;13.93;;
40541;SDS011;49288;52.194;5.676;2023-08-30T07:05:23;42.20;;;17.20;;
40541;SDS011;49288;52.194;5.676;2023-08-30T07:10:27;35.40;;;15.70;;
40541;SDS011;49288;52.194;5.676;2023-08-30T07:15:29;29.85;;;14.35;;
40541;SDS011;49288;52.194;5.676;2023-08-30T07:20:33;32.43;;;14.57;;
40541;SDS011;49288;52.194;5.676;2023-08-30T07:25:37;27.23;;;13.23;;
40541;SDS011;49288;52.194;5.676;2023-08-30T07:30:40;32.95;;;13.50;;
40541;SDS011;49288;52.194;5.676;2023-08-30T07:35:43;24.95;;;11.25;;
40541;SDS011;49288;52.194;5.676;2023-08-30T07:40:46;33.15;;;13.93;;
40541;SDS011;49288;52.194;5.676;2023-08-30T07:45:49;21.10;;;12.45;;
40541;SDS011;49288;52.194;5.676;2023-08-30T07:50:52;29.00;;;14.45;;
40541;SDS011;49288;52.194;5.676;2023-08-30T07:55:54;25.67;;;14.35;;
40541;SDS011;49288;52.194;5.676;2023-08-30T08:00:57;32.67;;;15.85;;
40541;SDS011;49288;52.194;5.676;2023-08-30T08:06:00;28.42;;;15.35;;
40541;SDS011;49288;52.194;5.676;2023-08-30T08:11:03;31.25;;;16.88;;
40541;SDS011;49288;52.194;5.676;2023-08-30T08:16:05;37.15;;;19.63;;
40541;SDS011;49288;52.194;5.676;2023-08-30T08:21:09;41.33;;;19.77;;
40541;SDS011;49288;52.194;5.676;2023-08-30T08:26:12;38.53;;;19.80;;
40541;SDS011;49288;52.194;5.676;2023-08-30T08:31:15;32.05;;;15.40;;
40541;SDS011;49288;52.194;5.676;2023-08-30T08:36:17;30.10;;;14.95;;
40541;SDS011;49288;52.194;5.676;2023-08-30T08:41:21;33.55;;;16.73;;
40541;SDS011;49288;52.194;5.676;2023-08-30T08:46:27;24.02;;;12.98;;
40541;SDS011;49288;52.194;5.676;2023-08-30T08:51:31;27.88;;;14.25;;
40541;SDS011;49288;52.194;5.676;2023-08-30T08:56:36;18.75;;;9.60;;
40541;SDS011;49288;52.194;5.676;2023-08-30T09:01:40;20.13;;;10.50;;
40541;SDS011;49288;52.194;5.676;2023-08-30T09:06:43;18.77;;;10.57;;
40541;SDS011;49288;52.194;5.676;2023-08-30T09:11:46;21.10;;;11.20;;
40541;SDS011;49288;52.194;5.676;2023-08-30T09:22:03;15.27;;;8.13;;
40541;SDS011;49288;52.194;5.676;2023-08-30T09:27:06;20.20;;;10.57;;
40541;SDS011;49288;52.194;5.676;2023-08-30T09:32:12;24.77;;;12.32;;
40541;SDS011;49288;52.194;5.676;2023-08-30T09:37:21;19.05;;;10.55;;
40541;SDS011;49288;52.194;5.676;2023-08-30T09:42:24;18.70;;;10.02;;
40541;SDS011;49288;52.194;5.676;2023-08-30T09:47:27;24.20;;;12.95;;
40541;SDS011;49288;52.194;5.676;2023-08-30T09:52:32;20.48;;;11.00;;
40541;SDS011;49288;52.194;5.676;2023-08-30T09:57:35;18.25;;;9.85;;
40541;SDS011;49288;52.194;5.676;2023-08-30T10:02:39;16.05;;;10.15;;
40541;SDS011;49288;52.194;5.676;2023-08-30T10:08:06;16.77;;;10.00;;
40541;SDS011;49288;52.194;5.676;2023-08-30T10:13:11;25.45;;;11.73;;
40541;SDS011;49288;52.194;5.676;2023-08-30T10:18:17;22.55;;;13.57;;
40541;SDS011;49288;52.194;5.676;2023-08-30T10:23:23;26.08;;;12.68;;
40541;SDS011;49288;52.194;5.676;2023-08-30T10:28:26;22.00;;;13.45;;
40541;SDS011;49288;52.194;5.676;2023-08-30T10:33:30;24.55;;;14.10;;
40541;SDS011;49288;52.194;5.676;2023-08-30T10:38:32;23.38;;;14.30;;
40541;SDS011;49288;52.194;5.676;2023-08-30T10:43:40;20.27;;;12.05;;
40541;SDS011;49288;52.194;5.676;2023-08-30T10:48:43;27.33;;;16.27;;
40541;SDS011;49288;52.194;5.676;2023-08-30T10:53:58;23.38;;;13.57;;
40541;SDS011;49288;52.194;5.676;2023-08-30T10:59:04;29.88;;;16.20;;
40541;SDS011;49288;52.194;5.676;2023-08-30T11:04:07;34.30;;;19.45;;
40541;SDS011;49288;52.194;5.676;2023-08-30T11:09:17;26.52;;;15.15;;
40541;SDS011;49288;52.194;5.676;2023-08-30T11:14:23;41.63;;;21.95;;
40541;SDS011;49288;52.194;5.676;2023-08-30T11:19:29;31.90;;;18.13;;
40541;SDS011;49288;52.194;5.676;2023-08-30T11:24:33;25.27;;;15.20;;
40541;SDS011;49288;52.194;5.676;2023-08-30T11:29:36;25.90;;;15.17;;
40541;SDS011;49288;52.194;5.676;2023-08-30T11:34:42;13.27;;;8.32;;
40541;SDS011;49288;52.194;5.676;2023-08-30T11:39:45;17.13;;;7.60;;
40541;SDS011;49288;52.194;5.676;2023-08-30T11:44:49;21.60;;;7.00;;
40541;SDS011;49288;52.194;5.676;2023-08-30T11:49:52;14.40;;;4.78;;
40541;SDS011;49288;52.194;5.676;2023-08-30T11:54:56;16.17;;;4.60;;
40541;SDS011;49288;52.194;5.676;2023-08-30T12:00:09;11.63;;;3.63;;
40541;SDS011;49288;52.194;5.676;2023-08-30T12:05:15;13.10;;;4.20;;
40541;SDS011;49288;52.194;5.676;2023-08-30T12:10:18;11.47;;;4.10;;
40541;SDS011;49288;52.194;5.676;2023-08-30T12:15:22;14.77;;;4.22;;
40541;SDS011;49288;52.194;5.676;2023-08-30T12:20:27;16.30;;;4.78;;
40541;SDS011;49288;52.194;5.676;2023-08-30T12:25:31;12.43;;;4.10;;
40541;SDS011;49288;52.194;5.676;2023-08-30T12:30:36;14.23;;;4.50;;
40541;SDS011;49288;52.194;5.676;2023-08-30T12:35:38;13.73;;;4.35;;
40541;SDS011;49288;52.194;5.676;2023-08-30T12:40:41;12.55;;;4.32;;
40541;SDS011;49288;52.194;5.676;2023-08-30T12:45:50;10.65;;;3.65;;
40541;SDS011;49288;52.194;5.676;2023-08-30T12:50:53;23.37;;;3.87;;
40541;SDS011;49288;52.194;5.676;2023-08-30T12:55:56;13.45;;;3.50;;
40541;SDS011;49288;52.194;5.676;2023-08-30T13:00:59;19.45;;;3.60;;
40541;SDS011;49288;52.194;5.676;2023-08-30T13:06:02;12.85;;;3.63;;
40541;SDS011;49288;52.194;5.676;2023-08-30T13:11:06;12.45;;;3.72;;
40541;SDS011;49288;52.194;5.676;2023-08-30T13:16:08;12.97;;;3.27;;
40541;SDS011;49288;52.194;5.676;2023-08-30T13:21:11;13.03;;;3.77;;
40541;SDS011;49288;52.194;5.676;2023-08-30T13:26:16;15.57;;;4.20;;
40541;SDS011;49288;52.194;5.676;2023-08-30T13:31:19;14.35;;;4.38;;
40541;SDS011;49288;52.194;5.676;2023-08-30T13:36:22;15.40;;;4.10;;
40541;SDS011;49288;52.194;5.676;2023-08-30T13:41:25;15.03;;;3.30;;
40541;SDS011;49288;52.194;5.676;2023-08-30T13:46:28;16.65;;;3.50;;
40541;SDS011;49288;52.194;5.676;2023-08-30T13:51:31;13.90;;;3.10;;
40541;SDS011;49288;52.194;5.676;2023-08-30T13:56:33;16.20;;;3.47;;
40541;SDS011;49288;52.194;5.676;2023-08-30T14:01:37;8.73;;;3.50;;
40541;SDS011;49288;52.194;5.676;2023-08-30T14:06:40;13.30;;;3.10;;
40541;SDS011;49288;52.194;5.676;2023-08-30T14:11:43;13.90;;;3.60;;
40541;SDS011;49288;52.194;5.676;2023-08-30T14:16:46;13.67;;;3.50;;
40541;SDS011;49288;52.194;5.676;2023-08-30T14:21:49;10.47;;;2.90;;
40541;SDS011;49288;52.194;5.676;2023-08-30T14:26:54;16.13;;;3.15;;
40541;SDS011;49288;52.194;5.676;2023-08-30T14:31:57;8.52;;;2.70;;
40541;SDS011;49288;52.194;5.676;2023-08-30T14:37:00;8.73;;;2.77;;
40541;SDS011;49288;52.194;5.676;2023-08-30T14:42:03;10.18;;;3.00;;
40541;SDS011;49288;52.194;5.676;2023-08-30T14:47:06;5.80;;;2.37;;
40541;SDS011;49288;52.194;5.676;2023-08-30T14:52:09;9.95;;;2.50;;
40541;SDS011;49288;52.194;5.676;2023-08-30T14:57:11;5.32;;;2.00;;
40541;SDS011;49288;52.194;5.676;2023-08-30T15:02:15;6.10;;;2.30;;
40541;SDS011;49288;52.194;5.676;2023-08-30T15:07:18;3.47;;;1.80;;
40541;SDS011;49288;52.194;5.676;2023-08-30T15:12:20;6.00;;;2.23;;
40541;SDS011;49288;52.194;5.676;2023-08-30T15:17:23;6.07;;;2.30;;
40541;SDS011;49288;52.194;5.676;2023-08-30T15:22:26;4.00;;;2.05;;
40541;SDS011;49288;52.194;5.676;2023-08-30T15:27:29;6.80;;;2.20;;
40541;SDS011;49288;52.194;5.676;2023-08-30T15:32:33;5.10;;;2.00;;
40541;SDS011;49288;52.194;5.676;2023-08-30T15:37:36;10.95;;;1.98;;
40541;SDS011;49288;52.194;5.676;2023-08-30T15:42:39;10.47;;;2.30;;
40541;SDS011;49288;52.194;5.676;2023-08-30T15:47:42;10.43;;;2.70;;
40541;SDS011;49288;52.194;5.676;2023-08-30T15:52:44;6.65;;;2.58;;
40541;SDS011;49288;52.194;5.676;2023-08-30T15:57:47;9.27;;;2.90;;
40541;SDS011;49288;52.194;5.676;2023-08-30T16:02:50;6.05;;;2.40;;
40541;SDS011;49288;52.194;5.676;2023-08-30T16:07:56;4.75;;;2.30;;
40541;SDS011;49288;52.194;5.676;2023-08-30T16:13:05;10.23;;;3.25;;
40541;SDS011;49288;52.194;5.676;2023-08-30T16:18:08;13.43;;;2.83;;
40541;SDS011;49288;52.194;5.676;2023-08-30T16:23:11;10.50;;;3.08;;
40541;SDS011;49288;52.194;5.676;2023-08-30T16:28:15;10.82;;;2.70;;
40541;SDS011;49288;52.194;5.676;2023-08-30T16:33:18;8.77;;;2.42;;
40541;SDS011;49288;52.194;5.676;2023-08-30T16:38:21;12.65;;;2.80;;
40541;SDS011;49288;52.194;5.676;2023-08-30T16:43:24;6.72;;;2.40;;
40541;SDS011;49288;52.194;5.676;2023-08-30T16:48:27;12.52;;;2.58;;
40541;SDS011;49288;52.194;5.676;2023-08-30T16:53:31;12.50;;;2.33;;
40541;SDS011;49288;52.194;5.676;2023-08-30T16:58:35;8.45;;;2.58;;
40541;SDS011;49288;52.194;5.676;2023-08-30T17:03:38;13.32;;;2.85;;
40541;SDS011;49288;52.194;5.676;2023-08-30T17:08:41;12.02;;;2.80;;
40541;SDS011;49288;52.194;5.676;2023-08-30T17:13:44;11.15;;;2.78;;
40541;SDS011;49288;52.194;5.676;2023-08-30T17:18:47;7.72;;;2.65;;
40541;SDS011;49288;52.194;5.676;2023-08-30T17:23:50;10.90;;;2.58;;
40541;SDS011;49288;52.194;5.676;2023-08-30T17:28:53;7.82;;;2.65;;
40541;SDS011;49288;52.194;5.676;2023-08-30T17:33:56;8.88;;;2.40;;
40541;SDS011;49288;52.194;5.676;2023-08-30T17:38:59;8.13;;;2.50;;
40541;SDS011;49288;52.194;5.676;2023-08-30T17:44:02;10.02;;;2.85;;
40541;SDS011;49288;52.194;5.676;2023-08-30T17:49:05;8.13;;;2.58;;
40541;SDS011;49288;52.194;5.676;2023-08-30T17:54:08;7.28;;;2.72;;
40541;SDS011;49288;52.194;5.676;2023-08-30T17:59:12;7.47;;;2.90;;
40541;SDS011;49288;52.194;5.676;2023-08-30T18:04:15;14.97;;;3.17;;
40541;SDS011;49288;52.194;5.676;2023-08-30T18:09:18;8.07;;;2.30;;
40541;SDS011;49288;52.194;5.676;2023-08-30T18:14:22;7.03;;;2.70;;
40541;SDS011;49288;52.194;5.676;2023-08-30T18:19:25;8.23;;;2.60;;
40541;SDS011;49288;52.194;5.676;2023-08-30T18:24:28;8.05;;;2.60;;
40541;SDS011;49288;52.194;5.676;2023-08-30T18:29:31;11.85;;;2.92;;
40541;SDS011;49288;52.194;5.676;2023-08-30T18:34:34;8.32;;;2.72;;
40541;SDS011;49288;52.194;5.676;2023-08-30T18:39:36;9.35;;;2.60;;
40541;SDS011;49288;52.194;5.676;2023-08-30T18:44:39;10.35;;;2.65;;
40541;SDS011;49288;52.194;5.676;2023-08-30T18:49:42;8.32;;;2.63;;
40541;SDS011;49288;52.194;5.676;2023-08-30T18:54:46;7.90;;;2.40;;
40541;SDS011;49288;52.194;5.676;2023-08-30T18:59:49;15.07;;;2.78;;
40541;SDS011;49288;52.194;5.676;2023-08-30T19:04:58;8.57;;;2.72;;
40541;SDS011;49288;52.194;5.676;2023-08-30T19:10:02;7.40;;;2.22;;
40541;SDS011;49288;52.194;5.676;2023-08-30T19:15:05;10.03;;;2.93;;
40541;SDS011;49288;52.194;5.676;2023-08-30T19:25:12;11.43;;;3.13;;
40541;SDS011;49288;52.194;5.676;2023-08-30T19:30:18;5.80;;;2.83;;
40541;SDS011;49288;52.194;5.676;2023-08-30T19:35:21;5.03;;;2.90;;
40541;SDS011;49288;52.194;5.676;2023-08-30T19:40:24;7.35;;;3.25;;
40541;SDS011;49288;52.194;5.676;2023-08-30T19:45:27;8.00;;;3.20;;
40541;SDS011;49288;52.194;5.676;2023-08-30T19:50:30;20.48;;;3.60;;
40541;SDS011;49288;52.194;5.676;2023-08-30T19:55:33;9.83;;;3.67;;
40541;SDS011;49288;52.194;5.676;2023-08-30T20:00:36;15.10;;;3.45;;
40541;SDS011;49288;52.194;5.676;2023-08-30T20:05:45;14.07;;;3.67;;
40541;SDS011;49288;52.194;5.676;2023-08-30T20:10:59;12.50;;;3.90;;
40541;SDS011;49288;52.194;5.676;2023-08-30T20:16:07;16.45;;;3.70;;
40541;SDS011;49288;52.194;5.676;2023-08-30T20:21:12;11.48;;;3.20;;
40541;SDS011;49288;52.194;5.676;2023-08-30T20:26:16;7.20;;;2.72;;
40541;SDS011;49288;52.194;5.676;2023-08-30T20:31:21;7.15;;;2.42;;
40541;SDS011;49288;52.194;5.676;2023-08-30T20:36:25;8.20;;;3.63;;
40541;SDS011;49288;52.194;5.676;2023-08-30T20:41:41;11.07;;;3.20;;
40541;SDS011;49288;52.194;5.676;2023-08-30T20:46:45;7.53;;;2.95;;
40541;SDS011;49288;52.194;5.676;2023-08-30T20:51:50;12.00;;;3.60;;
40541;SDS011;49288;52.194;5.676;2023-08-30T20:56:54;7.63;;;3.05;;
40541;SDS011;49288;52.194;5.676;2023-08-30T21:01:58;8.32;;;3.10;;
40541;SDS011;49288;52.194;5.676;2023-08-30T21:07:01;13.82;;;3.00;;
40541;SDS011;49288;52.194;5.676;2023-08-30T21:12:06;8.45;;;2.45;;
40541;SDS011;49288;52.194;5.676;2023-08-30T21:17:10;10.30;;;2.90;;
40541;SDS011;49288;52.194;5.676;2023-08-30T21:22:14;6.30;;;2.47;;
40541;SDS011;49288;52.194;5.676;2023-08-30T21:27:17;7.63;;;2.30;;
40541;SDS011;49288;52.194;5.676;2023-08-30T21:32:20;5.57;;;2.28;;
40541;SDS011;49288;52.194;5.676;2023-08-30T21:37:23;5.65;;;2.60;;
40541;SDS011;49288;52.194;5.676;2023-08-30T21:42:26;4.90;;;2.22;;
40541;SDS011;49288;52.194;5.676;2023-08-30T21:47:29;6.00;;;2.33;;
40541;SDS011;49288;52.194;5.676;2023-08-30T21:52:32;7.30;;;3.40;;
40541;SDS011;49288;52.194;5.676;2023-08-30T21:57:35;8.50;;;2.70;;
40541;SDS011;49288;52.194;5.676;2023-08-30T22:02:38;5.30;;;2.60;;
40541;SDS011;49288;52.194;5.676;2023-08-30T22:07:41;6.73;;;3.27;;
40541;SDS011;49288;52.194;5.676;2023-08-30T22:12:45;3.88;;;2.55;;
40541;SDS011;49288;52.194;5.676;2023-08-30T22:17:50;6.82;;;3.20;;
40541;SDS011;49288;52.194;5.676;2023-08-30T22:22:53;8.63;;;3.30;;
40541;SDS011;49288;52.194;5.676;2023-08-30T22:27:56;4.85;;;2.80;;
40541;SDS011;49288;52.194;5.676;2023-08-30T22:32:59;9.85;;;2.88;;
40541;SDS011;49288;52.194;5.676;2023-08-30T22:38:02;6.90;;;3.75;;
40541;SDS011;49288;52.194;5.676;2023-08-30T22:43:05;12.15;;;3.97;;
40541;SDS011;49288;52.194;5.676;2023-08-30T22:48:08;10.48;;;4.13;;
40541;SDS011;49288;52.194;5.676;2023-08-30T22:53:11;8.25;;;4.90;;
40541;SDS011;49288;52.194;5.676;2023-08-30T22:58:14;11.25;;;3.63;;
40541;SDS011;49288;52.194;5.676;2023-08-30T23:03:17;6.30;;;4.05;;
40541;SDS011;49288;52.194;5.676;2023-08-30T23:08:20;8.30;;;3.25;;
40541;SDS011;49288;52.194;5.676;2023-08-30T23:13:23;8.95;;;4.03;;
40541;SDS011;49288;52.194;5.676;2023-08-30T23:18:26;6.07;;;3.95;;
40541;SDS011;49288;52.194;5.676;2023-08-30T23:23:29;6.63;;;4.20;;
40541;SDS011;49288;52.194;5.676;2023-08-30T23:28:32;6.78;;;3.50;;
40541;SDS011;49288;52.194;5.676;2023-08-30T23:33:35;8.82;;;3.88;;
40541;SDS011;49288;52.194;5.676;2023-08-30T23:38:38;7.55;;;3.85;;
40541;SDS011;49288;52.194;5.676;2023-08-30T23:43:45;6.30;;;3.47;;
40541;SDS011;49288;52.194;5.676;2023-08-30T23:48:48;5.55;;;3.60;;
40541;SDS011;49288;52.194;5.676;2023-08-30T23:53:50;6.47;;;3.75;;
40541;SDS011;49288;52.194;5.676;2023-08-30T23:58:53;5.82;;;4.05;;
